createdAt,value
2023-03-24T00:01:14.831Z,4.20
2023-03-24T00:02:37.960Z,3.47
2023-03-24T00:04:00.960Z,3.00
2023-03-24T00:05:23.905Z,3.43
2023-03-24T00:06:49.165Z,3.30
2023-03-24T00:08:11.288Z,3.33
2023-03-24T00:09:33.590Z,3.07
2023-03-24T00:11:00.168Z,3.30
2023-03-24T00:12:22.438Z,3.03
2023-03-24T00:13:46.755Z,3.10
2023-03-24T00:15:15.096Z,3.33
2023-03-24T00:16:38.376Z,3.57
2023-03-24T00:18:00.531Z,3.20
2023-03-24T00:19:22.668Z,2.97
2023-03-24T00:20:46.006Z,3.20
2023-03-24T00:22:14.170Z,3.03
2023-03-24T00:23:36.506Z,3.20
2023-03-24T00:24:58.658Z,3.00
2023-03-24T00:26:21.499Z,3.67
2023-03-24T00:27:44.929Z,3.33
2023-03-24T00:29:09.274Z,3.50
2023-03-24T00:30:31.565Z,3.67
2023-03-24T00:31:53.837Z,3.23
2023-03-24T00:33:15.936Z,3.57
2023-03-24T00:34:38.492Z,3.57
2023-03-24T00:36:02.566Z,3.47
2023-03-24T00:37:24.853Z,3.40
2023-03-24T00:38:48.431Z,3.10
2023-03-24T00:40:17.079Z,3.30
2023-03-24T00:41:39.175Z,3.30
2023-03-24T00:43:01.732Z,4.00
2023-03-24T00:44:23.792Z,3.00
2023-03-24T00:45:46.488Z,3.10
2023-03-24T00:47:09.858Z,3.50
2023-03-24T00:48:32.454Z,3.17
2023-03-24T00:49:57.847Z,3.70
2023-03-24T00:51:19.944Z,2.80
2023-03-24T00:52:44.244Z,3.60
2023-03-24T00:54:09.180Z,3.30
2023-03-24T00:55:32.080Z,3.20
2023-03-24T00:56:55.970Z,3.70
2023-03-24T00:58:19.640Z,2.97
2023-03-24T00:59:48.899Z,3.03
2023-03-24T01:01:11.052Z,3.60
2023-03-24T01:02:33.720Z,3.17
2023-03-24T01:03:56.832Z,3.83
2023-03-24T01:05:20.734Z,3.20
2023-03-24T01:06:44.898Z,2.97
2023-03-24T01:08:08.360Z,3.10
2023-03-24T01:09:30.489Z,2.90
2023-03-24T01:10:53.252Z,3.10
2023-03-24T01:12:18.978Z,3.13
2023-03-24T01:13:41.899Z,3.40
2023-03-24T01:15:14.799Z,3.30
2023-03-24T01:16:37.507Z,3.20
2023-03-24T01:18:03.028Z,3.93
2023-03-24T01:19:25.561Z,3.40
2023-03-24T01:20:49.187Z,3.37
2023-03-24T01:22:12.724Z,3.60
2023-03-24T01:23:35.109Z,2.97
2023-03-24T01:24:57.408Z,2.90
2023-03-24T01:26:19.821Z,3.17
2023-03-24T01:27:42.196Z,3.57
2023-03-24T01:29:04.557Z,3.20
2023-03-24T01:30:29.106Z,2.97
2023-03-24T01:31:51.421Z,3.67
2023-03-24T01:33:13.542Z,3.53
2023-03-24T01:34:36.105Z,2.73
2023-03-24T01:35:58.546Z,3.43
2023-03-24T01:37:20.913Z,3.50
2023-03-24T01:38:43.032Z,3.43
2023-03-24T01:40:12.481Z,3.43
2023-03-24T01:41:37.662Z,3.80
2023-03-24T01:43:00.695Z,3.23
2023-03-24T01:44:36.596Z,3.20
2023-03-24T01:46:08.098Z,3.23
2023-03-24T01:47:30.402Z,2.80
2023-03-24T01:49:06.320Z,3.23
2023-03-24T01:50:29.881Z,3.63
2023-03-24T01:51:56.320Z,3.40
2023-03-24T01:53:18.611Z,3.40
2023-03-24T01:54:47.959Z,3.70
2023-03-24T01:56:11.102Z,3.97
2023-03-24T01:57:40.450Z,3.37
2023-03-24T01:59:08.520Z,3.47
2023-03-24T02:00:31.141Z,3.63
2023-03-24T02:02:02.710Z,3.50
2023-03-24T02:03:26.335Z,3.63
2023-03-24T02:04:54.036Z,3.90
2023-03-24T02:06:18.564Z,3.90
2023-03-24T02:08:27.094Z,3.53
2023-03-24T02:09:50.155Z,3.50
2023-03-24T02:11:13.015Z,4.00
2023-03-24T02:12:35.808Z,3.20
2023-03-24T02:13:58.767Z,3.30
2023-03-24T02:15:21.764Z,3.70
2023-03-24T02:16:46.909Z,3.03
2023-03-24T02:18:44.833Z,3.80
2023-03-24T02:20:28.231Z,4.17
2023-03-24T02:22:18.083Z,3.13
2023-03-24T02:23:58.951Z,3.40
2023-03-24T02:25:42.814Z,2.70
2023-03-24T02:27:24.795Z,3.53
2023-03-24T02:29:03.572Z,3.43
2023-03-24T02:31:19.389Z,3.00
2023-03-24T02:33:14.005Z,3.33
2023-03-24T02:34:57.163Z,3.30
2023-03-24T02:36:50.866Z,3.03
2023-03-24T02:38:24.763Z,2.90
2023-03-24T02:39:58.408Z,3.60
2023-03-24T02:41:55.446Z,3.57
2023-03-24T02:43:30.181Z,3.10
2023-03-24T02:45:05.499Z,3.43
2023-03-24T02:46:38.576Z,3.70
2023-03-24T02:48:10.534Z,3.03
2023-03-24T02:49:37.590Z,3.40
2023-03-24T02:51:08.909Z,3.00
2023-03-24T02:52:40.681Z,3.50
2023-03-24T02:54:27.641Z,3.20
2023-03-24T02:56:12.394Z,3.87
2023-03-24T02:57:42.902Z,3.27
2023-03-24T02:59:14.711Z,3.40
2023-03-24T03:00:47.372Z,3.00
2023-03-24T03:02:16.129Z,3.50
2023-03-24T03:03:49.413Z,3.50
2023-03-24T03:05:22.857Z,2.53
2023-03-24T03:06:52.507Z,3.03
2023-03-24T03:08:18.175Z,3.10
2023-03-24T03:09:47.386Z,2.90
2023-03-24T03:11:14.337Z,2.70
2023-03-24T03:12:38.107Z,3.13
2023-03-24T03:14:07.824Z,3.33
2023-03-24T03:15:36.528Z,4.00
2023-03-24T03:17:14.611Z,2.73
2023-03-24T03:18:45.051Z,3.73
2023-03-24T03:20:16.309Z,3.77
2023-03-24T03:21:42.926Z,3.03
2023-03-24T03:23:10.269Z,3.23
2023-03-24T03:24:37.383Z,3.73
2023-03-24T03:26:05.080Z,3.50
2023-03-24T03:27:38.847Z,3.33
2023-03-24T03:29:23.170Z,3.40
2023-03-24T03:30:50.936Z,3.10
2023-03-24T03:32:24.731Z,3.20
2023-03-24T03:34:09.286Z,3.27
2023-03-24T03:35:39.814Z,3.77
2023-03-24T03:37:04.976Z,3.80
2023-03-24T03:38:44.728Z,3.33
2023-03-24T03:40:26.863Z,3.50
2023-03-24T03:41:48.971Z,3.00
2023-03-24T03:43:11.736Z,3.60
2023-03-24T03:44:33.954Z,3.57
2023-03-24T03:45:56.541Z,4.10
2023-03-24T03:47:21.226Z,3.73
2023-03-24T03:48:44.856Z,4.13
2023-03-24T03:50:08.859Z,4.10
2023-03-24T03:51:33.577Z,4.17
2023-03-24T03:52:55.825Z,5.03
2023-03-24T03:54:19.323Z,3.10
2023-03-24T03:55:41.822Z,4.30
2023-03-24T03:57:04.600Z,4.37
2023-03-24T03:58:28.854Z,4.00
2023-03-24T03:59:51.179Z,4.00
2023-03-24T04:01:19.972Z,4.17
2023-03-24T04:03:05.362Z,4.43
2023-03-24T04:04:59.608Z,3.90
2023-03-24T04:06:40.935Z,4.03
2023-03-24T04:08:42.122Z,3.93
2023-03-24T04:10:37.721Z,5.20
2023-03-24T04:12:02.543Z,4.10
2023-03-24T04:13:41.967Z,4.13
2023-03-24T04:15:34.829Z,4.20
2023-03-24T04:17:17.672Z,4.17
2023-03-24T04:19:10.948Z,4.30
2023-03-24T04:21:04.638Z,4.27
2023-03-24T04:22:48.232Z,4.47
2023-03-24T04:24:32.632Z,5.10
2023-03-24T04:26:10.437Z,4.83
2023-03-24T04:28:01.004Z,3.87
2023-03-24T04:29:37.911Z,4.43
2023-03-24T04:31:18.941Z,4.03
2023-03-24T04:33:03.713Z,5.30
2023-03-24T04:34:31.780Z,4.87
2023-03-24T04:36:06.289Z,4.50
2023-03-24T04:37:38.079Z,5.30
2023-03-24T04:39:01.730Z,5.80
2023-03-24T04:40:24.630Z,5.50
2023-03-24T04:41:47.617Z,4.63
2023-03-24T04:43:14.732Z,5.03
2023-03-24T04:44:37.231Z,5.13
2023-03-24T04:45:59.319Z,4.33
2023-03-24T04:47:24.157Z,5.70
2023-03-24T04:48:48.182Z,4.77
2023-03-24T04:50:12.687Z,5.80
2023-03-24T04:51:35.512Z,4.80
2023-03-24T04:52:58.118Z,4.90
2023-03-24T04:54:21.747Z,5.37
2023-03-24T04:55:49.937Z,5.20
2023-03-24T04:57:11.971Z,5.00
2023-03-24T04:58:34.156Z,5.23
2023-03-24T04:59:56.727Z,4.23
2023-03-24T05:01:21.402Z,4.90
2023-03-24T05:02:45.247Z,5.20
2023-03-24T05:04:08.331Z,4.13
2023-03-24T05:05:30.416Z,4.10
2023-03-24T05:06:52.517Z,4.90
2023-03-24T05:08:16.412Z,4.93
2023-03-24T05:09:38.552Z,5.07
2023-03-24T05:11:00.574Z,5.47
2023-03-24T05:12:22.899Z,5.30
2023-03-24T05:13:45.285Z,5.83
2023-03-24T05:15:07.814Z,5.43
2023-03-24T05:16:29.924Z,5.67
2023-03-24T05:17:52.899Z,5.70
2023-03-24T05:19:15.591Z,6.10
2023-03-24T05:20:37.653Z,6.30
2023-03-24T05:21:59.681Z,5.90
2023-03-24T05:23:21.755Z,6.00
2023-03-24T05:24:45.115Z,6.00
2023-03-24T05:26:07.522Z,5.60
2023-03-24T05:27:29.556Z,5.40
2023-03-24T05:28:51.608Z,5.30
2023-03-24T05:30:14.835Z,5.90
2023-03-24T05:31:36.935Z,5.47
2023-03-24T05:32:59.187Z,5.57
2023-03-24T05:34:22.602Z,4.43
2023-03-24T05:35:44.910Z,5.50
2023-03-24T05:37:09.625Z,5.20
2023-03-24T05:38:31.706Z,4.70
2023-03-24T05:39:55.993Z,5.57
2023-03-24T05:41:18.229Z,5.27
2023-03-24T05:42:40.409Z,5.07
2023-03-24T05:44:02.471Z,5.13
2023-03-24T05:45:25.501Z,4.50
2023-03-24T05:46:47.593Z,4.67
2023-03-24T05:48:09.758Z,4.30
2023-03-24T05:49:31.839Z,4.57
2023-03-24T05:50:54.175Z,4.00
2023-03-24T05:52:16.406Z,3.90
2023-03-24T05:53:38.474Z,4.20
2023-03-24T05:55:00.832Z,3.87
2023-03-24T05:56:22.938Z,4.23
2023-03-24T05:57:45.419Z,3.90
2023-03-24T05:59:07.562Z,4.80
2023-03-24T06:00:31.711Z,4.80
2023-03-24T06:01:56.852Z,4.43
2023-03-24T06:03:19.199Z,4.50
2023-03-24T06:04:46.246Z,3.60
2023-03-24T06:06:09.782Z,3.50
2023-03-24T06:07:32.164Z,4.43
2023-03-24T06:08:58.478Z,4.63
2023-03-24T06:10:22.205Z,4.30
2023-03-24T06:11:44.757Z,4.00
2023-03-24T06:13:08.920Z,3.60
2023-03-24T06:14:31.142Z,4.00
2023-03-24T06:15:54.665Z,3.67
2023-03-24T06:17:16.801Z,3.47
2023-03-24T06:18:42.609Z,3.90
2023-03-24T06:20:12.359Z,3.53
2023-03-24T06:21:35.297Z,3.73
2023-03-24T06:22:59.722Z,3.90
2023-03-24T06:24:21.861Z,3.90
2023-03-24T06:25:44.423Z,4.37
2023-03-24T06:27:08.709Z,4.00
2023-03-24T06:28:34.413Z,4.37
2023-03-24T06:30:00.171Z,3.70
2023-03-24T06:31:22.376Z,3.73
2023-03-24T06:32:48.004Z,3.80
2023-03-24T06:34:10.275Z,4.40
2023-03-24T06:35:32.357Z,4.07
2023-03-24T06:36:54.730Z,3.93
2023-03-24T06:38:16.912Z,3.80
2023-03-24T06:39:38.945Z,4.07
2023-03-24T06:41:02.252Z,4.23
2023-03-24T06:42:24.477Z,4.50
2023-03-24T06:43:46.669Z,3.60
2023-03-24T06:45:10.096Z,4.17
2023-03-24T06:46:32.247Z,4.00
2023-03-24T06:47:56.410Z,4.00
2023-03-24T06:49:18.726Z,4.50
2023-03-24T06:50:54.253Z,4.10
2023-03-24T06:52:16.612Z,3.77
2023-03-24T06:53:41.256Z,3.80
2023-03-24T06:55:04.474Z,4.13
2023-03-24T06:56:27.433Z,3.77
2023-03-24T06:57:49.743Z,3.60
2023-03-24T06:59:11.993Z,3.83
2023-03-24T07:00:34.790Z,3.80
2023-03-24T07:01:57.048Z,3.50
2023-03-24T07:03:19.341Z,3.90
2023-03-24T07:04:42.789Z,3.73
2023-03-24T07:06:07.565Z,3.70
2023-03-24T07:08:16.174Z,3.67
2023-03-24T07:09:12.340Z,3.23
2023-03-24T07:10:36.459Z,3.13
2023-03-24T07:11:58.719Z,3.20
2023-03-24T07:13:20.823Z,3.23
2023-03-24T07:14:42.935Z,3.77
2023-03-24T07:16:05.583Z,3.33
2023-03-24T07:17:27.789Z,3.50
2023-03-24T07:18:49.967Z,3.60
2023-03-24T07:20:12.202Z,3.30
2023-03-24T07:21:34.363Z,4.57
2023-03-24T07:22:57.187Z,3.63
2023-03-24T07:24:19.883Z,3.70
2023-03-24T07:25:42.121Z,3.40
2023-03-24T07:27:04.783Z,3.20
2023-03-24T07:28:27.134Z,3.20
2023-03-24T07:29:49.328Z,3.73
2023-03-24T07:31:12.391Z,3.80
2023-03-24T07:32:39.308Z,3.30
2023-03-24T07:34:02.225Z,3.87
2023-03-24T07:35:24.483Z,3.37
2023-03-24T07:36:46.783Z,2.67
2023-03-24T07:38:10.480Z,3.27
2023-03-24T07:39:33.198Z,3.00
2023-03-24T07:40:55.685Z,3.30
2023-03-24T07:42:17.849Z,3.03
2023-03-24T07:43:39.998Z,3.30
2023-03-24T07:45:02.439Z,3.30
2023-03-24T07:46:24.695Z,2.70
2023-03-24T07:47:47.669Z,3.23
2023-03-24T07:49:18.738Z,3.20
2023-03-24T07:50:41.387Z,3.00
2023-03-24T07:52:06.569Z,3.07
2023-03-24T07:53:28.917Z,3.20
2023-03-24T07:54:51.856Z,2.80
2023-03-24T07:56:15.091Z,3.10
2023-03-24T07:57:37.779Z,2.77
2023-03-24T07:58:59.911Z,2.80
2023-03-24T08:00:24.762Z,2.50
2023-03-24T08:01:52.609Z,2.87
2023-03-24T08:03:17.376Z,2.87
2023-03-24T08:04:39.717Z,2.73
2023-03-24T08:06:02.186Z,2.70
2023-03-24T08:07:24.753Z,2.70
2023-03-24T08:08:47.166Z,2.27
2023-03-24T08:10:13.946Z,2.47
2023-03-24T08:11:36.213Z,2.60
2023-03-24T08:12:59.489Z,2.47
2023-03-24T08:14:21.740Z,2.30
2023-03-24T08:15:44.235Z,2.63
2023-03-24T08:17:06.561Z,2.87
2023-03-24T08:18:28.797Z,2.90
2023-03-24T08:20:00.127Z,4.85
2023-03-24T08:21:24.821Z,2.90
2023-03-24T08:22:54.491Z,2.63
2023-03-24T08:24:17.579Z,3.10
2023-03-24T08:25:39.780Z,3.20
2023-03-24T08:27:06.086Z,2.60
2023-03-24T08:28:28.404Z,2.70
2023-03-24T08:29:50.626Z,2.70
2023-03-24T08:31:12.941Z,2.77
2023-03-24T08:32:35.564Z,3.10
2023-03-24T08:33:57.782Z,2.83
2023-03-24T08:35:25.733Z,2.50
2023-03-24T08:36:48.087Z,2.37
2023-03-24T08:38:11.930Z,2.50
2023-03-24T08:39:35.808Z,2.97
2023-03-24T08:41:06.826Z,2.17
2023-03-24T08:42:29.135Z,2.37
2023-03-24T08:43:51.333Z,2.27
2023-03-24T08:45:14.130Z,2.40
2023-03-24T08:46:36.485Z,2.10
2023-03-24T08:48:00.888Z,2.23
2023-03-24T08:49:23.046Z,2.33
2023-03-24T08:50:45.344Z,2.07
2023-03-24T08:52:08.420Z,2.50
2023-03-24T08:53:30.670Z,2.50
2023-03-24T08:54:53.003Z,2.20
2023-03-24T08:56:15.383Z,2.47
2023-03-24T08:57:37.424Z,2.80
2023-03-24T08:58:59.456Z,2.33
2023-03-24T09:00:22.635Z,2.47
2023-03-24T09:01:45.798Z,2.53
2023-03-24T09:03:10.154Z,2.37
2023-03-24T09:04:32.355Z,2.67
2023-03-24T09:05:58.439Z,2.73
2023-03-24T09:07:21.274Z,2.60
2023-03-24T09:08:43.428Z,2.40
2023-03-24T09:10:09.923Z,2.70
2023-03-24T09:11:32.073Z,2.83
2023-03-24T09:12:54.155Z,3.27
2023-03-24T09:14:16.416Z,2.50
2023-03-24T09:15:41.431Z,2.57
2023-03-24T09:17:03.679Z,2.87
2023-03-24T09:18:26.004Z,2.80
2023-03-24T09:19:48.120Z,2.43
2023-03-24T09:21:10.560Z,3.20
2023-03-24T09:22:32.645Z,2.70
2023-03-24T09:23:54.799Z,2.53
2023-03-24T09:25:19.919Z,2.80
2023-03-24T09:26:42.064Z,2.43
2023-03-24T09:28:04.437Z,2.50
2023-03-24T09:29:26.624Z,2.93
2023-03-24T09:30:49.406Z,3.27
2023-03-24T09:32:11.777Z,3.37
2023-03-24T09:33:35.064Z,3.33
2023-03-24T09:34:57.329Z,3.13
2023-03-24T09:36:19.572Z,3.27
2023-03-24T09:37:43.677Z,3.20
2023-03-24T09:39:06.149Z,2.87
2023-03-24T09:40:33.834Z,3.10
2023-03-24T09:41:56.048Z,3.20
2023-03-24T09:43:30.389Z,3.13
2023-03-24T09:44:58.708Z,3.23
2023-03-24T09:46:31.582Z,3.70
2023-03-24T09:48:01.088Z,3.30
2023-03-24T09:49:27.573Z,3.17
2023-03-24T09:51:00.148Z,3.50
2023-03-24T09:52:28.101Z,3.27
2023-03-24T09:53:55.686Z,3.27
2023-03-24T09:55:26.287Z,2.87
2023-03-24T09:56:51.733Z,2.90
2023-03-24T09:58:14.370Z,3.30
2023-03-24T09:59:39.708Z,2.93
2023-03-24T10:01:01.951Z,3.03
2023-03-24T10:02:24.114Z,3.13
2023-03-24T10:03:47.065Z,2.90
2023-03-24T10:05:48.565Z,2.43
2023-03-24T10:07:31.084Z,2.70
2023-03-24T10:09:17.905Z,3.10
2023-03-24T10:11:10.665Z,2.80
2023-03-24T10:12:37.562Z,2.87
2023-03-24T10:14:21.474Z,2.80
2023-03-24T10:15:54.836Z,3.07
2023-03-24T10:17:41.564Z,3.20
2023-03-24T10:19:15.379Z,3.37
2023-03-24T10:20:55.362Z,3.77
2023-03-24T10:22:46.186Z,2.87
2023-03-24T10:24:28.047Z,3.40
2023-03-24T10:26:17.912Z,3.50
2023-03-24T10:28:00.434Z,2.57
2023-03-24T10:29:25.391Z,3.00
2023-03-24T10:30:49.922Z,2.30
2023-03-24T10:32:25.287Z,2.90
2023-03-24T10:33:47.490Z,3.00
2023-03-24T10:35:19.881Z,3.10
2023-03-24T10:36:43.409Z,2.43
2023-03-24T10:38:20.612Z,2.60
2023-03-24T10:39:44.996Z,2.23
2023-03-24T10:41:07.680Z,2.00
2023-03-24T10:42:34.398Z,2.20
2023-03-24T10:43:58.184Z,2.33
2023-03-24T10:45:29.886Z,1.70
2023-03-24T10:46:55.379Z,1.87
2023-03-24T10:48:44.321Z,1.97
2023-03-24T10:50:12.583Z,1.37
2023-03-24T10:51:36.860Z,1.37
2023-03-24T10:52:59.234Z,1.20
2023-03-24T10:54:24.176Z,1.23
2023-03-24T10:55:48.097Z,1.57
2023-03-24T10:57:18.774Z,1.33
2023-03-24T10:58:43.126Z,1.50
2023-03-24T11:00:19.201Z,1.20
2023-03-24T11:01:41.449Z,1.13
2023-03-24T11:03:12.455Z,1.20
2023-03-24T11:04:34.938Z,1.43
2023-03-24T11:06:04.932Z,1.23
2023-03-24T11:07:37.134Z,1.30
2023-03-24T11:09:22.168Z,1.20
2023-03-24T11:10:44.941Z,1.20
2023-03-24T11:12:25.631Z,1.30
2023-03-24T11:13:56.933Z,2.03
2023-03-24T11:15:37.394Z,1.00
2023-03-24T11:17:11.964Z,1.10
2023-03-24T11:18:34.411Z,1.53
2023-03-24T11:19:57.646Z,1.57
2023-03-24T11:21:20.675Z,1.10
2023-03-24T11:22:44.929Z,1.20
2023-03-24T11:24:15.698Z,1.00
2023-03-24T11:25:40.435Z,1.00
2023-03-24T11:27:03.709Z,1.13
2023-03-24T11:28:27.885Z,1.20
2023-03-24T11:29:53.990Z,1.13
2023-03-24T11:31:24.609Z,1.20
2023-03-24T11:32:48.459Z,1.57
2023-03-24T11:34:24.585Z,1.20
2023-03-24T11:35:59.265Z,1.17
2023-03-24T11:37:30.796Z,1.20
2023-03-24T11:39:01.192Z,1.40
2023-03-24T11:40:25.733Z,1.20
2023-03-24T11:41:53.457Z,1.30
2023-03-24T11:43:21.607Z,1.73
2023-03-24T11:44:43.646Z,1.83
2023-03-24T11:46:17.235Z,1.40
2023-03-24T11:47:40.266Z,1.77
2023-03-24T11:49:03.640Z,0.90
2023-03-24T11:50:38.382Z,1.10
2023-03-24T11:52:02.303Z,1.40
2023-03-24T11:53:30.500Z,1.90
2023-03-24T11:54:52.901Z,1.10
2023-03-24T11:56:44.335Z,1.30
2023-03-24T11:58:36.612Z,1.03
2023-03-24T12:00:15.190Z,1.10
2023-03-24T12:01:43.788Z,1.40
2023-03-24T12:03:27.048Z,1.10
2023-03-24T12:05:07.711Z,1.37
2023-03-24T12:07:08.304Z,1.10
2023-03-24T12:08:57.677Z,1.40
2023-03-24T12:10:28.690Z,0.90
2023-03-24T12:12:33.591Z,1.10
2023-03-24T12:14:00.718Z,1.30
2023-03-24T12:15:37.733Z,1.03
2023-03-24T12:17:17.277Z,1.00
2023-03-24T12:18:56.500Z,1.40
2023-03-24T12:20:21.207Z,1.20
2023-03-24T12:22:01.409Z,1.20
2023-03-24T12:23:44.467Z,1.33
2023-03-24T12:25:31.572Z,1.70
2023-03-24T12:27:00.691Z,1.30
2023-03-24T12:28:36.860Z,1.40
2023-03-24T12:30:31.334Z,1.40
2023-03-24T12:32:14.606Z,2.17
2023-03-24T12:33:55.503Z,1.60
2023-03-24T12:35:39.901Z,1.77
2023-03-24T12:37:43.037Z,1.30
2023-03-24T12:39:12.515Z,1.40
2023-03-24T12:40:37.365Z,1.30
2023-03-24T12:42:02.337Z,1.40
2023-03-24T12:44:44.841Z,1.40
2023-03-24T12:46:48.347Z,2.30
2023-03-24T12:48:16.522Z,1.30
2023-03-24T12:49:59.448Z,1.40
2023-03-24T12:51:38.406Z,1.60
2023-03-24T12:53:16.174Z,1.50
2023-03-24T12:55:04.169Z,1.50
2023-03-24T12:56:53.080Z,1.50
2023-03-24T12:58:32.665Z,1.20
2023-03-24T13:00:08.533Z,1.40
2023-03-24T13:02:04.268Z,1.50
2023-03-24T13:03:45.321Z,1.03
2023-03-24T13:05:35.271Z,1.50
2023-03-24T13:07:03.490Z,1.47
2023-03-24T13:08:32.193Z,1.13
2023-03-24T13:10:18.135Z,1.30
2023-03-24T13:12:15.171Z,1.43
2023-03-24T13:13:44.013Z,2.23
2023-03-24T13:15:13.474Z,1.60
2023-03-24T13:16:37.906Z,1.70
2023-03-24T13:18:12.310Z,1.57
2023-03-24T13:19:36.907Z,1.70
2023-03-24T13:21:00.977Z,1.37
2023-03-24T13:22:25.939Z,1.47
2023-03-24T13:24:08.006Z,1.90
2023-03-24T13:25:55.928Z,1.47
2023-03-24T13:27:27.194Z,1.50
2023-03-24T13:29:38.491Z,1.20
2023-03-24T13:31:10.322Z,1.97
2023-03-24T13:32:44.870Z,1.43
2023-03-24T13:34:21.250Z,1.27
2023-03-24T13:35:51.444Z,1.60
2023-03-24T13:37:25.227Z,1.60
2023-03-24T13:38:51.516Z,1.20
2023-03-24T13:40:28.045Z,2.00
2023-03-24T13:41:53.420Z,1.80
2023-03-24T13:43:24.586Z,1.17
2023-03-24T13:44:49.331Z,1.30
2023-03-24T13:46:14.580Z,1.33
2023-03-24T13:48:04.433Z,1.63
2023-03-24T13:49:26.804Z,1.40
2023-03-24T13:50:54.528Z,1.27
2023-03-24T13:52:45.040Z,1.20
2023-03-24T13:54:11.401Z,1.10
2023-03-24T13:55:38.189Z,1.20
2023-03-24T13:57:13.147Z,1.10
2023-03-24T13:59:07.460Z,1.40
2023-03-24T14:00:30.204Z,0.73
2023-03-24T14:02:29.065Z,1.30
2023-03-24T14:04:18.844Z,1.30
2023-03-24T14:05:58.726Z,1.07
2023-03-24T14:07:38.836Z,1.43
2023-03-24T14:09:05.941Z,1.40
2023-03-24T14:10:39.748Z,1.43
2023-03-24T14:12:05.019Z,1.23
2023-03-24T14:13:36.245Z,1.70
2023-03-24T14:15:10.879Z,2.03
2023-03-24T14:16:41.592Z,1.13
2023-03-24T14:18:37.641Z,2.00
2023-03-24T14:20:04.025Z,3.03
2023-03-24T14:21:31.518Z,1.70
2023-03-24T14:22:54.226Z,2.13
2023-03-24T14:24:18.128Z,1.87
2023-03-24T14:25:40.750Z,1.80
2023-03-24T14:27:22.513Z,1.70
2023-03-24T14:28:46.838Z,1.30
2023-03-24T14:30:12.618Z,1.67
2023-03-24T14:31:36.243Z,1.67
2023-03-24T14:33:00.841Z,1.43
2023-03-24T14:34:25.348Z,1.50
2023-03-24T14:35:49.073Z,1.27
2023-03-24T14:37:11.662Z,1.50
2023-03-24T14:38:38.453Z,1.57
2023-03-24T14:40:01.110Z,1.20
2023-03-24T14:41:31.256Z,1.57
2023-03-24T14:42:58.020Z,1.60
2023-03-24T14:44:39.355Z,1.80
2023-03-24T14:46:02.228Z,1.67
2023-03-24T14:47:28.462Z,1.87
2023-03-24T14:49:07.274Z,1.47
2023-03-24T14:50:29.904Z,1.60
2023-03-24T14:52:04.406Z,1.77
2023-03-24T14:53:26.982Z,1.30
2023-03-24T14:54:49.419Z,1.20
2023-03-24T14:56:14.234Z,1.30
2023-03-24T14:57:41.060Z,1.30
2023-03-24T14:59:06.535Z,2.27
2023-03-24T15:00:33.378Z,1.53
2023-03-24T15:02:00.899Z,1.40
2023-03-24T15:03:29.388Z,1.90
2023-03-24T15:05:10.542Z,1.30
2023-03-24T15:06:33.348Z,1.37
2023-03-24T15:08:00.113Z,1.43
2023-03-24T15:09:22.570Z,1.30
2023-03-24T15:11:04.457Z,1.20
2023-03-24T15:12:27.048Z,1.33
2023-03-24T15:13:51.408Z,1.90
2023-03-24T15:15:18.096Z,1.23
2023-03-24T15:16:40.738Z,1.40
2023-03-24T15:18:04.115Z,1.57
2023-03-24T15:19:28.481Z,1.60
2023-03-24T15:20:51.381Z,1.30
2023-03-24T15:22:14.373Z,1.17
2023-03-24T15:23:36.856Z,1.37
2023-03-24T15:24:59.362Z,1.50
2023-03-24T15:26:22.635Z,1.17
2023-03-24T15:27:52.036Z,1.00
2023-03-24T15:29:14.457Z,1.30
2023-03-24T15:30:37.052Z,1.10
2023-03-24T15:31:59.557Z,1.23
2023-03-24T15:33:22.366Z,2.17
2023-03-24T15:34:49.091Z,1.50
2023-03-24T15:36:16.649Z,1.60
2023-03-24T15:37:42.980Z,1.70
2023-03-24T15:39:17.437Z,1.90
2023-03-24T15:40:41.563Z,1.20
2023-03-24T15:42:07.808Z,1.20
2023-03-24T15:43:31.063Z,1.93
2023-03-24T15:44:54.750Z,1.27
2023-03-24T15:46:23.599Z,1.30
2023-03-24T15:47:46.083Z,1.20
2023-03-24T15:49:17.264Z,2.10
2023-03-24T15:50:40.573Z,1.60
2023-03-24T15:52:06.949Z,1.57
2023-03-24T15:53:31.039Z,1.40
2023-03-24T15:54:54.636Z,1.57
2023-03-24T15:56:21.244Z,1.37
2023-03-24T15:57:43.824Z,1.37
2023-03-24T15:59:09.192Z,1.87
2023-03-24T16:00:37.677Z,1.40
2023-03-24T16:02:00.587Z,1.60
2023-03-24T16:03:26.394Z,1.43
2023-03-24T16:04:54.286Z,1.70
2023-03-24T16:06:29.546Z,1.40
2023-03-24T16:07:56.311Z,1.07
2023-03-24T16:09:26.951Z,1.33
2023-03-24T16:10:58.560Z,1.30
2023-03-24T16:12:21.000Z,1.87
2023-03-24T16:13:44.874Z,1.40
2023-03-24T16:15:07.782Z,1.17
2023-03-24T16:16:31.106Z,1.43
2023-03-24T16:17:53.615Z,1.83
2023-03-24T16:19:16.346Z,1.20
2023-03-24T16:20:38.788Z,1.57
2023-03-24T16:22:02.244Z,1.33
2023-03-24T16:23:26.755Z,1.60
2023-03-24T16:24:49.470Z,1.83
2023-03-24T16:26:15.633Z,2.17
2023-03-24T16:27:38.070Z,1.40
2023-03-24T16:29:01.706Z,1.47
2023-03-24T16:30:25.275Z,2.00
2023-03-24T16:31:49.209Z,1.73
2023-03-24T16:33:12.586Z,1.40
2023-03-24T16:34:36.574Z,1.20
2023-03-24T16:35:59.443Z,1.53
2023-03-24T16:37:21.917Z,1.73
2023-03-24T16:38:45.268Z,1.80
2023-03-24T16:40:18.607Z,1.70
2023-03-24T16:41:41.266Z,2.10
2023-03-24T16:43:03.767Z,1.63
2023-03-24T16:44:26.263Z,1.57
2023-03-24T16:45:50.334Z,2.03
2023-03-24T16:47:12.872Z,2.00
2023-03-24T16:48:36.554Z,2.50
2023-03-24T16:49:58.998Z,1.50
2023-03-24T16:51:21.996Z,1.80
2023-03-24T16:52:44.385Z,1.73
2023-03-24T16:54:07.755Z,2.33
2023-03-24T16:55:30.366Z,1.90
2023-03-24T16:56:52.786Z,1.50
2023-03-24T16:58:18.179Z,1.60
2023-03-24T16:59:41.774Z,1.80
2023-03-24T17:01:04.849Z,2.07
2023-03-24T17:02:27.405Z,1.30
2023-03-24T17:03:50.054Z,2.20
2023-03-24T17:05:28.269Z,1.90
2023-03-24T17:06:55.207Z,2.07
2023-03-24T17:08:18.681Z,2.97
2023-03-24T17:09:41.393Z,2.40
2023-03-24T17:11:03.888Z,2.70
2023-03-24T17:12:27.652Z,2.60
2023-03-24T17:13:51.301Z,2.80
2023-03-24T17:15:19.282Z,3.00
2023-03-24T17:16:46.270Z,2.30
2023-03-24T17:18:09.899Z,2.73
2023-03-24T17:19:33.002Z,2.20
2023-03-24T17:20:55.623Z,2.90
2023-03-24T17:22:18.924Z,3.00
2023-03-24T17:23:41.366Z,2.00
2023-03-24T17:25:04.508Z,1.80
2023-03-24T17:26:26.989Z,3.13
2023-03-24T17:27:49.931Z,2.33
2023-03-24T17:29:13.780Z,1.90
2023-03-24T17:30:36.315Z,2.00
2023-03-24T17:31:58.797Z,3.00
2023-03-24T17:33:20.876Z,2.17
2023-03-24T17:34:44.185Z,1.83
2023-03-24T17:36:06.771Z,1.60
2023-03-24T17:37:30.142Z,1.90
2023-03-24T17:38:52.224Z,2.00
2023-03-24T17:40:17.030Z,2.23
2023-03-24T17:41:39.087Z,3.00
2023-03-24T17:43:01.144Z,2.37
2023-03-24T17:44:23.192Z,2.07
2023-03-24T17:45:45.261Z,2.47
2023-03-24T17:47:07.428Z,1.90
2023-03-24T17:48:30.271Z,2.37
2023-03-24T17:49:52.332Z,2.13
2023-03-24T17:51:14.400Z,2.90
2023-03-24T17:52:38.034Z,2.67
2023-03-24T17:54:00.716Z,2.10
2023-03-24T17:55:22.900Z,1.60
2023-03-24T17:56:45.006Z,1.83
2023-03-24T17:58:07.271Z,2.13
2023-03-24T17:59:29.628Z,2.00
2023-03-24T18:00:52.131Z,1.70
2023-03-24T18:02:14.609Z,1.83
2023-03-24T18:03:38.087Z,1.90
2023-03-24T18:05:00.372Z,1.50
2023-03-24T18:06:22.796Z,2.03
2023-03-24T18:07:45.179Z,2.20
2023-03-24T18:09:07.457Z,2.40
2023-03-24T18:10:31.780Z,3.00
2023-03-24T18:11:54.218Z,3.07
2023-03-24T18:13:16.250Z,3.13
2023-03-24T18:14:38.353Z,2.80
2023-03-24T18:16:13.131Z,3.60
2023-03-24T18:17:40.647Z,3.40
2023-03-24T18:19:02.771Z,3.50
2023-03-24T18:20:24.879Z,3.30
2023-03-24T18:21:47.137Z,3.20
2023-03-24T18:23:09.253Z,3.53
2023-03-24T18:24:31.537Z,3.50
2023-03-24T18:26:00.796Z,3.70
2023-03-24T18:27:23.090Z,3.90
2023-03-24T18:28:45.981Z,3.67
2023-03-24T18:30:09.909Z,3.23
2023-03-24T18:31:32.754Z,3.43
2023-03-24T18:32:55.012Z,4.50
2023-03-24T18:34:17.935Z,3.73
2023-03-24T18:35:41.772Z,4.53
2023-03-24T18:37:03.839Z,3.90
2023-03-24T18:38:26.282Z,5.40
2023-03-24T18:39:48.329Z,4.43
2023-03-24T18:41:13.045Z,3.80
2023-03-24T18:42:36.092Z,3.20
2023-03-24T18:43:59.519Z,3.83
2023-03-24T18:45:21.624Z,3.33
2023-03-24T18:46:43.790Z,3.20
2023-03-24T18:48:06.248Z,3.43
2023-03-24T18:49:28.740Z,4.47
2023-03-24T18:50:51.968Z,3.80
2023-03-24T18:52:17.986Z,3.70
2023-03-24T18:53:40.570Z,3.20
2023-03-24T18:55:02.861Z,3.70
2023-03-24T18:56:25.769Z,3.27
2023-03-24T18:57:48.074Z,3.50
2023-03-24T18:59:11.799Z,4.30
2023-03-24T19:00:34.091Z,3.70
2023-03-24T19:01:56.187Z,4.20
2023-03-24T19:03:19.462Z,2.87
2023-03-24T19:04:42.179Z,3.93
2023-03-24T19:06:07.153Z,3.50
2023-03-24T19:07:29.396Z,2.53
2023-03-24T19:08:52.573Z,3.40
2023-03-24T19:10:15.692Z,3.20
2023-03-24T19:11:38.087Z,2.50
2023-03-24T19:13:00.490Z,2.63
2023-03-24T19:14:25.112Z,3.13
2023-03-24T19:15:49.061Z,2.07
2023-03-24T19:17:11.372Z,2.50
2023-03-24T19:18:33.438Z,3.50
2023-03-24T19:19:58.003Z,4.50
2023-03-24T19:21:24.377Z,5.10
2023-03-24T19:22:46.532Z,5.03
2023-03-24T19:24:08.705Z,4.83
2023-03-24T19:25:30.735Z,5.13
2023-03-24T19:26:53.847Z,3.87
2023-03-24T19:28:16.409Z,3.83